createdAt,value
2019-02-10T00:01:12.589Z,8.31
2019-02-10T00:03:40.982Z,8.38
2019-02-10T00:06:08.468Z,8.36
2019-02-10T00:08:35.759Z,8.36
2019-02-10T00:11:02.987Z,8.33
2019-02-10T00:13:34.643Z,8.41
2019-02-10T00:16:07.783Z,8.37
2019-02-10T00:18:35.021Z,8.41
2019-02-10T00:21:02.264Z,8.43
2019-02-10T00:23:29.544Z,8.43
2019-02-10T00:25:56.773Z,8.47
2019-02-10T00:28:24.020Z,8.47
2019-02-10T00:30:51.307Z,8.47
2019-02-10T00:33:18.592Z,8.46
2019-02-10T00:35:45.941Z,8.41
2019-02-10T00:38:13.239Z,8.46
2019-02-10T00:40:40.481Z,8.49
2019-02-10T00:43:07.678Z,8.53
2019-02-10T00:45:34.955Z,8.44
2019-02-10T00:48:02.192Z,8.42
2019-02-10T00:50:29.414Z,8.55
2019-02-10T00:52:56.718Z,8.50
2019-02-10T00:55:23.956Z,8.44
2019-02-10T00:57:51.316Z,8.52
2019-02-10T01:00:18.660Z,8.54
2019-02-10T01:02:45.882Z,8.49
2019-02-10T01:05:13.139Z,8.43
2019-02-10T01:07:40.354Z,8.43
2019-02-10T01:10:07.696Z,8.51
2019-02-10T01:12:35.078Z,8.48
2019-02-10T01:15:02.414Z,8.44
2019-02-10T01:17:29.651Z,8.59
2019-02-10T01:19:56.891Z,8.56
2019-02-10T01:22:24.204Z,8.50
2019-02-10T01:24:51.535Z,8.56
2019-02-10T01:27:18.884Z,8.59
2019-02-10T01:29:46.122Z,8.59
2019-02-10T01:32:13.517Z,8.50
2019-02-10T01:34:40.756Z,8.53
2019-02-10T01:37:07.993Z,8.53
2019-02-10T01:39:35.252Z,8.52
2019-02-10T01:42:02.500Z,8.49
2019-02-10T01:44:30.120Z,8.51
2019-02-10T01:46:57.392Z,8.52
2019-02-10T01:49:24.640Z,8.60
2019-02-10T01:51:51.903Z,8.54
2019-02-10T01:54:19.145Z,8.54
2019-02-10T01:56:46.491Z,8.45
2019-02-10T01:59:13.808Z,8.47
2019-02-10T02:01:41.032Z,8.43
2019-02-10T02:04:08.324Z,8.45
2019-02-10T02:06:35.554Z,8.47
2019-02-10T02:09:05.148Z,8.48
2019-02-10T02:11:32.379Z,8.48
2019-02-10T02:13:59.664Z,8.50
2019-02-10T02:16:26.903Z,8.51
2019-02-10T02:18:54.152Z,8.53
2019-02-10T02:21:21.385Z,8.52
2019-02-10T02:23:48.623Z,8.49
2019-02-10T02:26:15.896Z,8.45
2019-02-10T02:28:43.133Z,8.51
2019-02-10T02:31:10.354Z,8.52
2019-02-10T02:33:37.594Z,8.58
2019-02-10T02:36:04.822Z,8.60
2019-02-10T02:38:32.056Z,8.67
2019-02-10T02:40:59.349Z,8.64
2019-02-10T02:43:26.570Z,8.67
2019-02-10T02:45:53.803Z,8.65
2019-02-10T02:48:21.102Z,8.61
2019-02-10T02:50:48.336Z,8.52
2019-02-10T02:53:15.560Z,8.52
2019-02-10T02:55:42.877Z,8.48
2019-02-10T02:58:10.216Z,8.48
2019-02-10T03:00:37.497Z,8.53
2019-02-10T03:03:04.768Z,8.52
2019-02-10T03:05:32.004Z,8.49
2019-02-10T03:07:59.220Z,8.50
2019-02-10T03:10:26.529Z,8.50
2019-02-10T03:12:53.753Z,8.50
2019-02-10T03:15:20.992Z,8.51
2019-02-10T03:17:48.292Z,8.48
2019-02-10T03:20:15.558Z,8.46
2019-02-10T03:22:42.741Z,8.40
2019-02-10T03:25:10.028Z,8.48
2019-02-10T03:27:37.275Z,8.48
2019-02-10T03:30:04.547Z,8.49
2019-02-10T03:32:31.836Z,8.39
2019-02-10T03:34:59.064Z,8.35
2019-02-10T03:37:27.483Z,8.43
2019-02-10T03:39:55.032Z,8.45
2019-02-10T03:42:22.449Z,8.48
2019-02-10T03:44:49.668Z,8.50
2019-02-10T03:47:16.924Z,8.54
2019-02-10T03:49:44.159Z,8.40
2019-02-10T03:52:11.379Z,8.38
2019-02-10T03:54:38.625Z,8.32
2019-02-10T03:57:05.836Z,8.42
2019-02-10T03:59:33.172Z,8.34
2019-02-10T04:02:00.451Z,8.27
2019-02-10T04:04:27.657Z,8.27
2019-02-10T04:06:54.928Z,8.22
2019-02-10T04:09:22.143Z,8.26
2019-02-10T04:11:49.347Z,8.19
2019-02-10T04:14:16.610Z,8.28
2019-02-10T04:16:43.830Z,8.17
2019-02-10T04:19:11.042Z,8.20
2019-02-10T04:21:38.306Z,8.08
2019-02-10T04:24:05.537Z,8.08
2019-02-10T04:26:32.746Z,8.18
2019-02-10T04:29:00.008Z,8.17
2019-02-10T04:31:27.223Z,8.08
2019-02-10T04:33:54.517Z,8.23
2019-02-10T04:36:21.770Z,8.23
2019-02-10T04:38:48.986Z,8.31
2019-02-10T04:41:16.340Z,8.35
2019-02-10T04:43:43.586Z,8.34
2019-02-10T04:46:10.806Z,8.36
2019-02-10T04:48:38.090Z,8.29
2019-02-10T04:51:05.307Z,8.35
2019-02-10T04:53:32.531Z,8.31
2019-02-10T04:56:10.222Z,8.41
2019-02-10T04:58:37.519Z,8.44
2019-02-10T05:01:04.753Z,8.46
2019-02-10T05:03:31.996Z,8.45
2019-02-10T05:05:59.243Z,8.37
2019-02-10T05:08:26.444Z,8.37
2019-02-10T05:10:53.722Z,8.46
2019-02-10T05:13:20.944Z,8.50
2019-02-10T05:15:48.148Z,8.58
2019-02-10T05:18:15.420Z,8.52
2019-02-10T05:20:42.652Z,8.52
2019-02-10T05:23:09.877Z,8.52
2019-02-10T05:25:37.139Z,8.59
2019-02-10T05:28:04.384Z,8.47
2019-02-10T05:30:31.594Z,8.51
2019-02-10T05:32:58.841Z,8.54
2019-02-10T05:35:26.078Z,8.60
2019-02-10T05:37:53.292Z,8.64
2019-02-10T05:40:20.584Z,8.69
2019-02-10T05:42:47.811Z,8.71
2019-02-10T05:45:15.023Z,8.72
2019-02-10T05:47:42.274Z,8.70
2019-02-10T05:50:09.564Z,8.55
2019-02-10T05:52:36.783Z,8.52
2019-02-10T05:55:04.102Z,8.58
2019-02-10T05:57:31.387Z,8.61
2019-02-10T05:59:58.673Z,8.61
2019-02-10T06:02:32.826Z,8.65
2019-02-10T06:05:12.084Z,8.58
2019-02-10T06:07:39.316Z,8.55
2019-02-10T06:10:06.757Z,8.43
2019-02-10T06:12:34.030Z,8.51
2019-02-10T06:15:01.242Z,8.49
2019-02-10T06:17:28.507Z,8.56
2019-02-10T06:19:55.733Z,8.51
2019-02-10T06:22:22.968Z,8.55
2019-02-10T06:24:50.234Z,8.53
2019-02-10T06:27:17.518Z,8.48
2019-02-10T06:29:44.739Z,8.57
2019-02-10T06:32:11.994Z,8.62
2019-02-10T06:34:39.210Z,8.44
2019-02-10T06:37:06.488Z,8.53
2019-02-10T06:39:33.716Z,8.57
2019-02-10T06:42:00.927Z,8.52
2019-02-10T06:44:28.189Z,8.59
2019-02-10T06:46:55.414Z,8.57
2019-02-10T06:49:22.649Z,8.52
2019-02-10T06:51:49.941Z,8.45
2019-02-10T06:54:17.162Z,8.49
2019-02-10T06:56:44.407Z,8.35
2019-02-10T06:59:40.059Z,8.47
2019-02-10T07:02:26.805Z,8.32
2019-02-10T07:04:54.057Z,8.19
2019-02-10T07:07:21.272Z,8.17
2019-02-10T07:09:48.526Z,8.18
2019-02-10T07:12:52.168Z,8.24
2019-02-10T07:15:55.793Z,8.24
2019-02-10T07:18:59.350Z,8.19
2019-02-10T07:21:30.655Z,8.21
2019-02-10T07:24:33.812Z,8.03
2019-02-10T07:27:14.411Z,7.96
2019-02-10T07:30:32.409Z,8.01
2019-02-10T07:33:00.349Z,8.05
2019-02-10T07:36:06.462Z,8.03
2019-02-10T07:39:06.088Z,7.85
2019-02-10T07:42:25.301Z,7.77
2019-02-10T07:45:24.714Z,7.76
2019-02-10T07:48:13.755Z,7.68
2019-02-10T07:51:21.197Z,7.60
2019-02-10T07:53:57.526Z,7.47
2019-02-10T07:56:55.960Z,7.45
2019-02-10T07:59:34.166Z,7.11
2019-02-10T08:02:30.089Z,6.99
2019-02-10T08:06:09.505Z,6.94
2019-02-10T08:09:05.366Z,6.83
2019-02-10T08:12:01.429Z,6.64
2019-02-10T08:15:08.274Z,6.56
2019-02-10T08:18:09.735Z,6.57
2019-02-10T08:21:17.511Z,6.66
2019-02-10T08:24:08.571Z,6.52
2019-02-10T08:26:45.614Z,6.40
2019-02-10T08:29:40.876Z,6.40
2019-02-10T08:32:21.312Z,6.35
2019-02-10T08:35:35.378Z,6.36
2019-02-10T08:38:38.551Z,6.31
2019-02-10T08:41:24.456Z,6.28
2019-02-10T08:44:48.464Z,6.35
2019-02-10T08:47:33.707Z,6.52
2019-02-10T08:50:39.861Z,6.36
2019-02-10T08:53:11.245Z,6.29
2019-02-10T08:55:38.473Z,6.29
2019-02-10T08:58:05.697Z,6.32
2019-02-10T09:00:32.951Z,6.30
2019-02-10T09:03:00.299Z,6.28
2019-02-10T09:05:27.555Z,6.47
2019-02-10T09:07:55.185Z,6.37
2019-02-10T09:10:22.432Z,6.29
2019-02-10T09:12:49.668Z,6.32
2019-02-10T09:15:16.925Z,6.43
2019-02-10T09:17:44.142Z,6.47
2019-02-10T09:20:11.488Z,6.55
2019-02-10T09:22:38.740Z,6.42
2019-02-10T09:25:06.827Z,6.47
2019-02-10T09:27:34.036Z,6.37
2019-02-10T09:30:01.305Z,6.40
2019-02-10T09:32:28.541Z,6.38
2019-02-10T09:34:55.779Z,6.55
2019-02-10T09:37:23.036Z,6.62
2019-02-10T09:39:50.887Z,6.30
2019-02-10T09:42:18.094Z,6.44
2019-02-10T09:44:45.384Z,6.55
2019-02-10T09:47:12.619Z,6.47
2019-02-10T09:49:39.912Z,6.49
2019-02-10T09:52:07.164Z,6.46
2019-02-10T09:54:34.373Z,6.59
2019-02-10T09:57:01.648Z,6.61
2019-02-10T09:59:28.956Z,6.39
2019-02-10T10:01:56.203Z,6.67
2019-02-10T10:04:23.438Z,6.86
2019-02-10T10:06:50.701Z,6.84
2019-02-10T10:09:19.679Z,6.83
2019-02-10T10:11:47.196Z,6.94
2019-02-10T10:14:14.421Z,6.94
2019-02-10T10:16:41.646Z,6.86
2019-02-10T10:19:08.892Z,6.96
2019-02-10T10:21:36.098Z,6.98
2019-02-10T10:24:03.361Z,7.02
2019-02-10T10:26:30.594Z,7.04
2019-02-10T10:28:57.806Z,7.06
2019-02-10T10:31:25.060Z,7.09
2019-02-10T10:33:52.280Z,7.21
2019-02-10T10:36:19.507Z,7.08
2019-02-10T10:38:46.883Z,7.30
2019-02-10T10:41:14.123Z,7.22
2019-02-10T10:43:41.356Z,7.22
2019-02-10T10:46:08.615Z,7.18
2019-02-10T10:48:35.852Z,7.18
2019-02-10T10:51:03.113Z,7.41
2019-02-10T10:53:30.366Z,7.22
2019-02-10T10:55:57.669Z,7.30
2019-02-10T10:58:24.898Z,7.17
2019-02-10T11:00:52.204Z,7.21
2019-02-10T11:03:19.502Z,7.17
2019-02-10T11:05:46.701Z,7.23
2019-02-10T11:08:13.956Z,7.16
2019-02-10T11:10:41.210Z,7.33
2019-02-10T11:13:08.426Z,7.36
2019-02-10T11:15:35.741Z,7.21
2019-02-10T11:18:03.014Z,7.52
2019-02-10T11:20:30.306Z,7.54
2019-02-10T11:22:57.526Z,7.54
2019-02-10T11:25:24.774Z,7.51
2019-02-10T11:27:52.001Z,7.49
2019-02-10T11:30:19.244Z,7.52
2019-02-10T11:32:46.456Z,7.67
2019-02-10T11:35:13.700Z,7.71
2019-02-10T11:37:40.964Z,7.64
2019-02-10T11:40:08.317Z,7.57
2019-02-10T11:42:35.551Z,7.68
2019-02-10T11:45:03.201Z,7.77
2019-02-10T11:47:30.409Z,7.49
2019-02-10T11:49:57.698Z,7.43
2019-02-10T11:52:24.990Z,7.47
2019-02-10T11:54:52.257Z,7.40
2019-02-10T11:57:19.553Z,7.16
2019-02-10T11:59:46.748Z,7.20
2019-02-10T12:02:14.073Z,7.19
2019-02-10T12:04:41.301Z,7.15
2019-02-10T12:07:08.516Z,7.10
2019-02-10T12:09:35.773Z,6.99
2019-02-10T12:12:03.044Z,7.06
2019-02-10T12:14:30.309Z,7.05
2019-02-10T12:16:57.528Z,7.05
2019-02-10T12:19:24.852Z,7.02
2019-02-10T12:21:52.099Z,7.10
2019-02-10T12:24:19.375Z,6.97
2019-02-10T12:26:46.626Z,7.04
2019-02-10T12:29:13.841Z,7.06
2019-02-10T12:31:41.134Z,7.09
2019-02-10T12:34:08.365Z,7.07
2019-02-10T12:36:35.580Z,6.98
2019-02-10T12:39:04.447Z,6.88
2019-02-10T12:41:31.674Z,6.93
2019-02-10T12:43:58.911Z,6.77
2019-02-10T12:46:26.161Z,6.80
2019-02-10T12:48:53.374Z,6.76
2019-02-10T12:51:20.609Z,6.86
2019-02-10T12:53:47.880Z,6.96
2019-02-10T12:56:15.107Z,6.95
2019-02-10T12:58:42.326Z,6.87
2019-02-10T13:01:09.588Z,6.86
2019-02-10T13:03:36.806Z,6.66
2019-02-10T13:06:04.022Z,6.71
2019-02-10T13:08:31.289Z,6.64
2019-02-10T13:10:58.514Z,6.61
2019-02-10T13:13:25.768Z,6.68
2019-02-10T13:15:52.973Z,6.72
2019-02-10T13:18:20.208Z,6.79
2019-02-10T13:20:47.451Z,6.68
2019-02-10T13:23:14.670Z,6.74
2019-02-10T13:25:41.891Z,6.87
2019-02-10T13:28:09.191Z,6.79
2019-02-10T13:30:36.428Z,6.80
2019-02-10T13:33:03.654Z,6.93
2019-02-10T13:35:30.903Z,6.84
2019-02-10T13:40:38.647Z,6.71
2019-02-10T13:43:05.863Z,6.67
2019-02-10T13:45:33.098Z,6.74
2019-02-10T13:48:00.377Z,6.76
2019-02-10T13:50:27.617Z,6.77
2019-02-10T13:52:54.821Z,6.82
2019-02-10T13:55:22.094Z,6.79
2019-02-10T13:57:49.329Z,6.71
2019-02-10T14:00:17.585Z,6.74
2019-02-10T14:02:44.837Z,6.73
2019-02-10T14:05:12.049Z,6.77
2019-02-10T14:07:39.281Z,6.70
2019-02-10T14:10:06.948Z,6.64
2019-02-10T14:12:34.277Z,6.67
2019-02-10T14:15:01.513Z,6.69
2019-02-10T14:17:28.852Z,6.69
2019-02-10T14:19:56.120Z,6.60
2019-02-10T14:22:23.344Z,6.47
2019-02-10T14:24:50.584Z,6.58
2019-02-10T14:27:17.900Z,6.63
2019-02-10T14:29:45.109Z,6.56
2019-02-10T14:32:12.309Z,6.62
2019-02-10T14:34:39.554Z,6.34
2019-02-10T14:37:06.766Z,6.43
2019-02-10T14:39:34.131Z,6.29
2019-02-10T14:42:01.644Z,6.42
2019-02-10T14:44:28.902Z,6.23
2019-02-10T14:46:56.136Z,6.26
2019-02-10T14:49:23.812Z,6.22
2019-02-10T14:51:51.090Z,6.16
2019-02-10T14:54:18.358Z,6.16
2019-02-10T14:56:45.570Z,6.25
2019-02-10T14:59:13.054Z,6.28
2019-02-10T15:01:40.263Z,6.23
2019-02-10T15:04:07.517Z,6.09
2019-02-10T15:06:34.738Z,6.08
2019-02-10T15:09:01.963Z,6.12
2019-02-10T15:11:29.221Z,6.08
2019-02-10T15:13:56.463Z,6.04
2019-02-10T15:16:23.836Z,6.12
2019-02-10T15:18:51.056Z,6.17
2019-02-10T15:21:18.357Z,6.09
2019-02-10T15:23:45.618Z,6.14
2019-02-10T15:26:12.859Z,6.10
2019-02-10T15:28:40.081Z,6.15
2019-02-10T15:31:07.362Z,6.12
2019-02-10T15:33:34.559Z,6.13
2019-02-10T15:36:01.777Z,6.04
2019-02-10T15:38:29.067Z,6.01
2019-02-10T15:40:56.357Z,6.00
2019-02-10T15:43:23.565Z,5.93
2019-02-10T15:45:50.852Z,5.96
2019-02-10T15:48:18.083Z,5.93
2019-02-10T15:50:45.284Z,5.85
2019-02-10T15:53:12.557Z,5.77
2019-02-10T15:55:39.839Z,5.75
2019-02-10T15:58:07.086Z,5.84
2019-02-10T16:00:34.475Z,5.80
2019-02-10T16:03:01.707Z,5.63
2019-02-10T16:05:28.936Z,5.72
2019-02-10T16:07:56.239Z,5.51
2019-02-10T16:10:23.454Z,5.56
2019-02-10T16:12:50.671Z,5.53
2019-02-10T16:15:19.288Z,5.51
2019-02-10T16:17:46.507Z,5.42
2019-02-10T16:20:13.744Z,5.49
2019-02-10T16:22:41.002Z,5.55
2019-02-10T16:25:08.736Z,5.57
2019-02-10T16:27:35.941Z,5.67
2019-02-10T16:30:04.819Z,5.66
2019-02-10T16:32:32.010Z,5.68
2019-02-10T16:34:59.256Z,5.74
2019-02-10T16:37:26.470Z,5.76
2019-02-10T16:39:53.767Z,5.72
2019-02-10T16:42:21.036Z,5.73
2019-02-10T16:44:48.261Z,5.62
2019-02-10T16:47:15.488Z,5.71
2019-02-10T16:49:42.750Z,5.77
2019-02-10T16:52:09.973Z,5.72
2019-02-10T16:54:37.188Z,5.88
2019-02-10T16:57:04.494Z,5.82
2019-02-10T16:59:31.723Z,5.80
2019-02-10T17:01:58.955Z,5.93
2019-02-10T17:04:26.215Z,6.09
2019-02-10T17:06:53.431Z,6.10
2019-02-10T17:09:20.686Z,6.17
2019-02-10T17:11:47.913Z,6.26
2019-02-10T17:14:15.138Z,6.31
2019-02-10T17:16:42.416Z,6.40
2019-02-10T17:19:09.650Z,6.36
2019-02-10T17:21:36.868Z,6.37
2019-02-10T17:24:04.135Z,6.41
2019-02-10T17:26:31.345Z,6.31
2019-02-10T17:28:58.564Z,6.39
2019-02-10T17:31:25.871Z,6.44
2019-02-10T17:33:53.197Z,6.57
2019-02-10T17:36:20.426Z,6.61
2019-02-10T17:38:47.676Z,6.67
2019-02-10T17:41:27.598Z,6.70
2019-02-10T17:43:54.853Z,6.77
2019-02-10T17:46:22.072Z,6.76
2019-02-10T17:48:49.274Z,6.72
2019-02-10T17:51:16.533Z,6.77
2019-02-10T17:53:43.741Z,6.84
2019-02-10T17:56:10.999Z,6.79
2019-02-10T17:58:38.300Z,6.80
2019-02-10T18:01:05.504Z,6.88
2019-02-10T18:03:32.729Z,6.89
2019-02-10T18:05:59.992Z,6.90
2019-02-10T18:08:27.220Z,6.97
2019-02-10T18:10:54.450Z,7.00
2019-02-10T18:13:21.686Z,6.99
2019-02-10T18:16:17.656Z,6.99
2019-02-10T18:18:59.413Z,6.74
2019-02-10T18:21:52.116Z,6.61
2019-02-10T18:24:35.180Z,6.60
2019-02-10T18:27:24.657Z,6.53
2019-02-10T18:30:10.113Z,6.39
2019-02-10T18:32:46.471Z,6.52
2019-02-10T18:35:32.393Z,6.35
2019-02-10T18:38:31.224Z,6.40
2019-02-10T18:41:39.201Z,6.39
2019-02-10T18:44:10.753Z,6.45
2019-02-10T18:46:49.541Z,6.45
2019-02-10T18:49:45.447Z,6.48
2019-02-10T18:52:32.328Z,6.62
2019-02-10T18:55:28.197Z,6.65
2019-02-10T18:58:17.557Z,6.65
2019-02-10T19:01:10.109Z,6.60
2019-02-10T19:03:55.568Z,6.53
2019-02-10T19:06:43.578Z,6.53
2019-02-10T19:09:30.432Z,6.50
2019-02-10T19:12:07.178Z,6.57
2019-02-10T19:14:50.663Z,6.48
2019-02-10T19:17:34.699Z,6.55
2019-02-10T19:20:09.665Z,6.41
2019-02-10T19:23:08.292Z,6.46
2019-02-10T19:25:58.109Z,6.47
2019-02-10T19:28:54.047Z,6.46
2019-02-10T19:31:40.804Z,6.41
2019-02-10T19:34:16.458Z,6.40
2019-02-10T19:37:09.029Z,6.37
2019-02-10T19:39:54.253Z,6.39
2019-02-10T19:42:28.373Z,6.38
2019-02-10T19:45:20.581Z,6.31
2019-02-10T19:48:06.052Z,6.42
2019-02-10T19:50:52.807Z,6.46
2019-02-10T19:53:31.541Z,6.43
2019-02-10T19:56:16.613Z,6.48
2019-02-10T19:59:18.577Z,6.54
2019-02-10T20:01:52.757Z,6.54
2019-02-10T20:04:45.624Z,6.52
2019-02-10T20:07:23.509Z,6.43
2019-02-10T20:10:09.187Z,6.48
2019-02-10T20:12:44.527Z,6.44
2019-02-10T20:15:35.032Z,6.44
2019-02-10T20:18:17.840Z,6.49
2019-02-10T20:20:52.703Z,6.43
2019-02-10T20:23:29.554Z,6.52
2019-02-10T20:26:14.870Z,6.54
2019-02-10T20:29:00.364Z,6.54
2019-02-10T20:31:47.122Z,6.43
2019-02-10T20:34:24.480Z,6.56
2019-02-10T20:37:11.125Z,6.50
2019-02-10T20:39:56.437Z,6.61
2019-02-10T20:42:33.379Z,6.54
2019-02-10T20:45:29.329Z,6.53
2019-02-10T20:48:24.729Z,6.47
2019-02-10T20:51:20.257Z,6.50
2019-02-10T20:54:15.895Z,6.53
2019-02-10T20:57:02.698Z,6.43
2019-02-10T20:59:35.754Z,6.51
2019-02-10T21:02:09.990Z,6.56
2019-02-10T21:04:49.006Z,6.55
2019-02-10T21:07:34.073Z,6.59
2019-02-10T21:10:33.073Z,6.61
2019-02-10T21:13:11.209Z,6.66
2019-02-10T21:15:56.635Z,6.75
2019-02-10T21:18:30.498Z,6.61
2019-02-10T21:21:11.223Z,6.59
2019-02-10T21:23:50.796Z,6.63
2019-02-10T21:26:34.815Z,6.62
2019-02-10T21:29:20.099Z,6.71
2019-02-10T21:32:09.710Z,6.70
2019-02-10T21:34:53.960Z,6.70
2019-02-10T21:37:26.185Z,6.70
2019-02-10T21:40:15.586Z,6.61
2019-02-10T21:43:18.484Z,6.66
2019-02-10T21:45:51.582Z,6.65
2019-02-10T21:48:44.069Z,6.66
2019-02-10T21:51:11.310Z,6.54
2019-02-10T21:53:38.551Z,6.59
2019-02-10T21:56:05.758Z,6.56
2019-02-10T21:58:33.043Z,6.62
2019-02-10T22:01:00.257Z,6.66
2019-02-10T22:03:27.463Z,6.66
2019-02-10T22:05:54.856Z,6.61
2019-02-10T22:08:22.075Z,6.59
2019-02-10T22:10:49.308Z,6.58
2019-02-10T22:13:16.578Z,6.53
2019-02-10T22:15:43.783Z,6.60
2019-02-10T22:18:11.019Z,6.68
2019-02-10T22:20:38.270Z,6.64
2019-02-10T22:23:05.488Z,6.54
2019-02-10T22:25:32.704Z,6.59
2019-02-10T22:27:59.960Z,6.64
2019-02-10T22:30:27.247Z,6.60
2019-02-10T22:32:54.501Z,6.62
2019-02-10T22:35:21.764Z,6.65
2019-02-10T22:37:48.983Z,6.72
2019-02-10T22:40:16.200Z,6.72
2019-02-10T22:42:45.710Z,6.71
2019-02-10T22:45:12.675Z,6.75
2019-02-10T22:47:39.925Z,6.69
2019-02-10T22:50:09.063Z,6.74
2019-02-10T22:52:36.376Z,6.80
2019-02-10T22:55:03.888Z,6.66
2019-02-10T22:57:31.088Z,6.75
2019-02-10T22:59:58.304Z,6.76
2019-02-10T23:02:25.566Z,6.69
2019-02-10T23:04:52.784Z,6.69
2019-02-10T23:07:20.007Z,6.67
2019-02-10T23:09:47.245Z,6.71
2019-02-10T23:12:14.457Z,6.77
2019-02-10T23:14:41.680Z,6.81
2019-02-10T23:17:08.944Z,6.76
2019-02-10T23:19:36.176Z,6.76
2019-02-10T23:22:03.384Z,6.77
2019-02-10T23:24:30.630Z,6.84
2019-02-10T23:26:57.855Z,6.74
2019-02-10T23:29:25.063Z,6.77
2019-02-10T23:31:52.344Z,6.80
2019-02-10T23:34:19.585Z,6.76
2019-02-10T23:36:46.796Z,6.73
2019-02-10T23:39:14.008Z,6.85
2019-02-10T23:41:41.272Z,6.97
2019-02-10T23:44:08.561Z,6.90
2019-02-10T23:46:35.771Z,6.86
2019-02-10T23:49:03.020Z,6.85
2019-02-10T23:51:30.237Z,6.71
2019-02-10T23:53:57.439Z,6.75
2019-02-10T23:56:24.695Z,6.66
2019-02-10T23:58:51.895Z,6.68
